createdAt,value
2022-12-14T00:01:10.713Z,77823.78
2022-12-14T00:03:37.545Z,77825.72
2022-12-14T00:06:18.182Z,77829.56
2022-12-14T00:08:45.395Z,77819.91
2022-12-14T00:11:12.116Z,77821.84
2022-12-14T00:13:39.457Z,77823.78
2022-12-14T00:16:09.283Z,77827.63
2022-12-14T00:18:36.382Z,77816.06
2022-12-14T00:21:21.765Z,77812.22
2022-12-14T00:23:49.006Z,77825.72
2022-12-14T00:26:17.344Z,77812.22
2022-12-14T00:28:44.462Z,77808.34
2022-12-14T00:31:11.120Z,77796.78
2022-12-14T00:33:37.790Z,77785.22
2022-12-14T00:36:05.269Z,77785.22
2022-12-14T00:38:32.030Z,77777.50
2022-12-14T00:40:58.885Z,77777.50
2022-12-14T00:43:25.681Z,77783.28
2022-12-14T00:45:52.542Z,77777.50
2022-12-14T00:48:20.335Z,77789.06
2022-12-14T00:50:48.763Z,77789.06
2022-12-14T00:53:15.757Z,77792.94
2022-12-14T00:55:43.496Z,77792.94
2022-12-14T00:58:10.849Z,77804.50
2022-12-14T01:00:37.383Z,77796.78
2022-12-14T01:03:04.455Z,77783.28
2022-12-14T01:05:30.991Z,77781.38
2022-12-14T01:07:57.617Z,77796.78
2022-12-14T01:10:24.328Z,77785.22
2022-12-14T01:12:50.937Z,77785.22
2022-12-14T01:15:17.451Z,77773.66
2022-12-14T01:17:44.036Z,77769.81
2022-12-14T01:20:11.065Z,77769.81
2022-12-14T01:22:37.843Z,77769.81
2022-12-14T01:25:05.373Z,77767.88
2022-12-14T01:27:31.879Z,77769.81
2022-12-14T01:29:58.377Z,77777.50
2022-12-14T01:32:24.907Z,77785.22
2022-12-14T01:34:51.446Z,77775.59
2022-12-14T01:37:17.993Z,77781.38
2022-12-14T01:39:44.832Z,77775.59
2022-12-14T01:42:12.351Z,77777.50
2022-12-14T01:44:39.061Z,77773.66
2022-12-14T01:47:12.689Z,77765.94
2022-12-14T01:49:42.713Z,77769.81
2022-12-14T01:52:13.107Z,77765.94
2022-12-14T01:54:48.844Z,77765.94
2022-12-14T01:57:17.244Z,77764.03
2022-12-14T01:59:45.837Z,77758.22
2022-12-14T02:02:14.749Z,77746.66
2022-12-14T02:04:49.664Z,77731.25
2022-12-14T02:07:17.431Z,77725.47
2022-12-14T02:09:45.230Z,77717.75
2022-12-14T02:12:19.945Z,77704.25
2022-12-14T02:14:47.085Z,77688.84
2022-12-14T02:17:14.644Z,77681.13
2022-12-14T02:19:43.783Z,77669.56
2022-12-14T02:22:25.537Z,77665.72
2022-12-14T02:25:04.539Z,77656.06
2022-12-14T02:27:49.989Z,77654.13
2022-12-14T02:30:18.501Z,77646.44
2022-12-14T02:33:03.691Z,77654.13
2022-12-14T02:35:46.677Z,77658.00
2022-12-14T02:38:22.004Z,77654.13
2022-12-14T02:41:01.969Z,77648.34
2022-12-14T02:43:36.017Z,77642.56
2022-12-14T02:46:31.942Z,77638.72
2022-12-14T02:48:58.718Z,77640.66
2022-12-14T02:51:31.340Z,77636.78
2022-12-14T02:54:02.544Z,77638.72
2022-12-14T02:56:36.519Z,77632.94
2022-12-14T02:59:04.439Z,77623.31
2022-12-14T03:01:31.428Z,77627.16
2022-12-14T03:03:58.401Z,77625.22
2022-12-14T03:06:28.145Z,77619.44
2022-12-14T03:09:06.687Z,77611.72
2022-12-14T03:11:51.479Z,77607.88
2022-12-14T03:14:25.403Z,77604.03
2022-12-14T03:16:53.581Z,77604.03
2022-12-14T03:19:28.852Z,77604.03
2022-12-14T03:21:57.655Z,77592.47
2022-12-14T03:24:38.892Z,77584.75
2022-12-14T03:27:09.940Z,77592.47
2022-12-14T03:29:41.050Z,77577.03
2022-12-14T03:32:10.511Z,77573.19
2022-12-14T03:34:45.861Z,77573.19
2022-12-14T03:37:14.559Z,77555.84
2022-12-14T03:39:42.436Z,77534.63
2022-12-14T03:42:08.952Z,77525.00
2022-12-14T03:44:49.412Z,77519.22
2022-12-14T03:47:31.729Z,77523.06
2022-12-14T03:50:15.993Z,77519.22
2022-12-14T03:52:42.572Z,77511.50
2022-12-14T03:55:20.839Z,77496.06
2022-12-14T03:57:52.806Z,77494.16
2022-12-14T04:00:22.544Z,77484.50
2022-12-14T04:03:01.134Z,77490.28
2022-12-14T04:05:37.433Z,77490.28
2022-12-14T04:08:22.912Z,77488.38
2022-12-14T04:11:09.298Z,77471.03
2022-12-14T04:14:00.550Z,77463.31
2022-12-14T04:16:49.441Z,77465.25
2022-12-14T04:19:23.651Z,77453.69
2022-12-14T04:21:58.961Z,77449.81
2022-12-14T04:24:44.304Z,77442.09
2022-12-14T04:27:18.489Z,77434.41
2022-12-14T04:29:58.165Z,77436.31
2022-12-14T04:32:27.802Z,77434.41
2022-12-14T04:34:57.003Z,77415.13
2022-12-14T04:37:24.872Z,77409.34
2022-12-14T04:40:12.568Z,77411.25
2022-12-14T04:42:46.365Z,77405.47
2022-12-14T04:45:18.320Z,77411.25
2022-12-14T04:47:51.296Z,77411.25
2022-12-14T04:50:22.976Z,77411.25
2022-12-14T04:52:52.775Z,77415.13
2022-12-14T04:55:28.679Z,77407.41
2022-12-14T04:57:59.113Z,77397.78
2022-12-14T05:00:25.744Z,77403.56
2022-12-14T05:02:55.338Z,77403.56
2022-12-14T05:05:31.078Z,77388.13
2022-12-14T05:08:04.318Z,77388.13
2022-12-14T05:10:36.297Z,77392.00
2022-12-14T05:13:06.674Z,77392.00
2022-12-14T05:15:40.600Z,77390.06
2022-12-14T05:18:07.502Z,77388.13
2022-12-14T05:20:34.276Z,77388.13
2022-12-14T05:23:00.821Z,77392.00
2022-12-14T05:25:27.471Z,77372.72
2022-12-14T05:27:53.968Z,77376.56
2022-12-14T05:30:20.713Z,77368.88
2022-12-14T05:32:47.381Z,77374.66
2022-12-14T05:35:14.379Z,77384.28
2022-12-14T05:37:41.468Z,77392.00
2022-12-14T05:40:08.732Z,77399.69
2022-12-14T05:42:39.595Z,77392.00
2022-12-14T05:45:14.283Z,77384.28
2022-12-14T05:47:41.069Z,77380.44
2022-12-14T05:50:07.990Z,77376.56
2022-12-14T05:52:34.829Z,77376.56
2022-12-14T05:55:04.386Z,77376.56
2022-12-14T05:57:31.738Z,77372.72
2022-12-14T05:59:58.285Z,77380.44
2022-12-14T06:02:24.835Z,77372.72
2022-12-14T06:04:51.650Z,77376.56
2022-12-14T06:07:20.676Z,77378.50
2022-12-14T06:09:50.974Z,77376.56
2022-12-14T06:12:17.854Z,77372.72
2022-12-14T06:14:44.593Z,77365.00
2022-12-14T06:17:12.693Z,77368.88
2022-12-14T06:19:39.290Z,77370.78
2022-12-14T06:22:05.948Z,77372.72
2022-12-14T06:24:32.407Z,77372.72
2022-12-14T06:26:58.951Z,77359.22
2022-12-14T06:29:26.224Z,77361.16
2022-12-14T06:31:52.749Z,77361.16
2022-12-14T06:34:23.416Z,77357.28
2022-12-14T06:36:53.099Z,77353.44
2022-12-14T06:39:19.597Z,77357.28
2022-12-14T06:41:49.128Z,77366.94
2022-12-14T06:44:15.768Z,77357.28
2022-12-14T06:46:42.774Z,77368.88
2022-12-14T06:49:12.705Z,77363.09
2022-12-14T06:51:40.405Z,77349.59
2022-12-14T06:54:07.181Z,77338.03
2022-12-14T06:56:33.906Z,77341.88
2022-12-14T06:59:00.477Z,77343.81
2022-12-14T07:01:28.768Z,77334.16
2022-12-14T07:03:57.166Z,77353.44
2022-12-14T07:06:24.853Z,77357.28
2022-12-14T07:08:56.051Z,77353.44
2022-12-14T07:11:23.226Z,77357.28
2022-12-14T07:13:49.859Z,77353.44
2022-12-14T07:16:24.674Z,77353.44
2022-12-14T07:18:51.764Z,77353.44
2022-12-14T07:21:19.339Z,77347.66
2022-12-14T07:23:46.819Z,77338.03
2022-12-14T07:26:16.862Z,77336.09
2022-12-14T07:28:43.802Z,77334.16
2022-12-14T07:31:12.823Z,77334.16
2022-12-14T07:33:39.674Z,77334.16
2022-12-14T07:36:08.837Z,77332.25
2022-12-14T07:38:36.702Z,77334.16
2022-12-14T07:41:06.586Z,77338.03
2022-12-14T07:43:33.225Z,77341.88
2022-12-14T07:46:01.402Z,77341.88
2022-12-14T07:48:28.274Z,77334.16
2022-12-14T07:50:54.872Z,77345.72
2022-12-14T07:53:21.383Z,77345.72
2022-12-14T07:55:47.990Z,77345.72
2022-12-14T07:58:14.518Z,77345.72
2022-12-14T08:00:41.016Z,77336.09
2022-12-14T08:03:07.585Z,77330.31
2022-12-14T08:05:34.533Z,77322.59
2022-12-14T08:08:01.171Z,77330.31
2022-12-14T08:10:27.794Z,77326.47
2022-12-14T08:12:54.341Z,77309.13
2022-12-14T08:15:20.928Z,77311.03
2022-12-14T08:17:47.428Z,77322.59
2022-12-14T08:20:14.564Z,77314.91
2022-12-14T08:22:41.089Z,77314.91
2022-12-14T08:25:08.051Z,77316.81
2022-12-14T08:27:34.643Z,77309.13
2022-12-14T08:30:01.234Z,77314.91
2022-12-14T08:32:33.908Z,77295.63
2022-12-14T08:35:00.756Z,77287.91
2022-12-14T08:37:27.267Z,77287.91
2022-12-14T08:39:53.833Z,77299.47
2022-12-14T08:42:20.491Z,77284.06
2022-12-14T08:44:46.981Z,77284.06
2022-12-14T08:47:16.112Z,77276.34
2022-12-14T08:49:42.758Z,77268.63
2022-12-14T08:52:10.235Z,77266.72
2022-12-14T08:54:36.726Z,77255.16
2022-12-14T08:57:04.149Z,77241.66
2022-12-14T09:00:00.302Z,77222.38
2022-12-14T09:02:17.433Z,77216.59
2022-12-14T09:04:44.084Z,77218.53
2022-12-14T09:07:10.644Z,77206.97
2022-12-14T09:09:40.086Z,77201.19
2022-12-14T09:12:07.635Z,77185.75
2022-12-14T09:14:34.609Z,77195.41
2022-12-14T09:17:01.514Z,77183.84
2022-12-14T09:19:28.458Z,77183.84
2022-12-14T09:21:55.547Z,77189.63
2022-12-14T09:24:24.566Z,77183.84
2022-12-14T09:26:51.300Z,77189.63
2022-12-14T09:29:19.376Z,77179.97
2022-12-14T09:31:45.957Z,77176.13
2022-12-14T09:34:12.618Z,77172.28
2022-12-14T09:36:39.147Z,77166.47
2022-12-14T09:39:05.655Z,77160.69
2022-12-14T09:41:32.495Z,77160.69
2022-12-14T09:44:18.852Z,77162.63
2022-12-14T09:46:45.634Z,77149.13
2022-12-14T09:49:44.629Z,77135.66
2022-12-14T09:52:15.863Z,77126.00
2022-12-14T09:54:42.946Z,77112.53
2022-12-14T09:57:15.604Z,77100.97
2022-12-14T09:59:42.341Z,77087.47
2022-12-14T10:02:33.983Z,77087.47
2022-12-14T10:05:12.786Z,77077.81
2022-12-14T10:07:50.426Z,77072.03
2022-12-14T10:10:24.043Z,77056.63
2022-12-14T10:12:59.469Z,77054.69
2022-12-14T10:15:44.888Z,77060.47
2022-12-14T10:18:33.982Z,77052.78
2022-12-14T10:21:16.424Z,77045.06
2022-12-14T10:23:54.399Z,77041.22
2022-12-14T10:26:22.860Z,77031.56
2022-12-14T10:29:15.313Z,77033.50
2022-12-14T10:31:51.973Z,77021.94
2022-12-14T10:34:20.336Z,77014.22
2022-12-14T10:37:10.227Z,76994.97
2022-12-14T10:39:49.565Z,77002.66
2022-12-14T10:42:28.245Z,76983.38
2022-12-14T10:45:09.680Z,76994.97
2022-12-14T10:47:44.645Z,76991.09
2022-12-14T10:50:26.643Z,76989.16
2022-12-14T10:52:54.110Z,76983.38
2022-12-14T10:55:28.672Z,76987.25
2022-12-14T10:57:55.829Z,76966.03
2022-12-14T11:00:23.477Z,76966.03
2022-12-14T11:02:54.280Z,76964.13
2022-12-14T11:05:32.523Z,76944.84
2022-12-14T11:08:02.595Z,76956.41
2022-12-14T11:10:30.873Z,76950.63
2022-12-14T11:13:03.723Z,76941.00
2022-12-14T11:15:35.592Z,76948.69
2022-12-14T11:18:05.036Z,76944.84
2022-12-14T11:20:32.485Z,76939.06
2022-12-14T11:23:06.104Z,76923.66
2022-12-14T11:25:35.319Z,76925.56
2022-12-14T11:28:20.789Z,76925.56
2022-12-14T11:30:53.536Z,76925.56
2022-12-14T11:33:20.571Z,76917.88
2022-12-14T11:35:53.370Z,76914.00
2022-12-14T11:38:20.197Z,76896.66
2022-12-14T11:40:47.118Z,76890.88
2022-12-14T11:43:24.077Z,76900.53
2022-12-14T11:45:51.565Z,76885.09
2022-12-14T11:48:22.145Z,76898.59
2022-12-14T11:50:49.663Z,76896.66
2022-12-14T11:53:18.127Z,76890.88
2022-12-14T11:55:48.570Z,76898.59
2022-12-14T11:58:17.402Z,76875.47
2022-12-14T12:00:46.955Z,76877.41
2022-12-14T12:03:16.154Z,76883.19
2022-12-14T12:05:43.985Z,76879.31
2022-12-14T12:08:30.695Z,76879.31
2022-12-14T12:11:01.993Z,76877.41
2022-12-14T12:13:42.214Z,76877.41
2022-12-14T12:16:14.927Z,76863.91
2022-12-14T12:18:49.613Z,76863.91
2022-12-14T12:21:19.269Z,76861.97
2022-12-14T12:23:54.874Z,76860.06
2022-12-14T12:26:29.391Z,76863.91
2022-12-14T12:29:10.715Z,76860.06
2022-12-14T12:31:49.431Z,76861.97
2022-12-14T12:34:18.885Z,76863.91
2022-12-14T12:37:17.084Z,76854.28
2022-12-14T12:39:35.163Z,76840.78
2022-12-14T12:42:13.847Z,76838.84
2022-12-14T12:44:40.619Z,76848.47
2022-12-14T12:47:29.915Z,76852.34
2022-12-14T12:50:01.111Z,76836.94
2022-12-14T12:52:33.975Z,76823.44
2022-12-14T12:55:03.156Z,76821.50
2022-12-14T12:57:33.443Z,76806.09
2022-12-14T13:00:00.137Z,76804.16
2022-12-14T13:02:30.056Z,76813.78
2022-12-14T13:04:57.161Z,76794.53
2022-12-14T13:07:26.699Z,76798.38
2022-12-14T13:10:01.850Z,76802.22
2022-12-14T13:12:34.770Z,76788.75
2022-12-14T13:15:03.130Z,76786.81
2022-12-14T13:17:32.838Z,76781.03
2022-12-14T13:20:00.939Z,76782.97
2022-12-14T13:22:29.652Z,76779.09
2022-12-14T13:24:59.858Z,76775.25
2022-12-14T13:27:26.691Z,76788.75
2022-12-14T13:30:12.085Z,76786.81
2022-12-14T13:32:38.787Z,76790.66
2022-12-14T13:35:34.917Z,76790.66
2022-12-14T13:38:20.469Z,76775.25
2022-12-14T13:40:53.468Z,76784.88
2022-12-14T13:43:38.792Z,76767.53
2022-12-14T13:46:13.885Z,76769.47
2022-12-14T13:48:41.563Z,76775.25
2022-12-14T13:51:18.953Z,76771.41
2022-12-14T13:53:50.458Z,76761.75
2022-12-14T13:56:32.483Z,76767.53
2022-12-14T13:59:01.455Z,76755.97
2022-12-14T14:01:46.164Z,76752.13
2022-12-14T14:04:15.891Z,76748.28
2022-12-14T14:06:45.567Z,76744.41
2022-12-14T14:09:30.141Z,76744.41
2022-12-14T14:11:59.773Z,76750.19
2022-12-14T14:14:45.054Z,76748.28
2022-12-14T14:17:19.799Z,76755.97
2022-12-14T14:19:49.566Z,76744.41
2022-12-14T14:22:23.840Z,76736.72
2022-12-14T14:24:56.205Z,76729.00
2022-12-14T14:27:24.761Z,76727.06
2022-12-14T14:29:52.390Z,76729.00
2022-12-14T14:32:38.894Z,76725.16
2022-12-14T14:35:07.247Z,76744.41
2022-12-14T14:37:38.612Z,76729.00
2022-12-14T14:40:20.794Z,76729.00
2022-12-14T14:42:57.560Z,76727.06
2022-12-14T14:45:35.955Z,76723.22
2022-12-14T14:48:08.541Z,76725.16
2022-12-14T14:50:36.512Z,76721.28
2022-12-14T14:53:25.099Z,76725.16
2022-12-14T14:56:00.186Z,76725.16
2022-12-14T14:58:26.754Z,76721.28
2022-12-14T15:00:59.403Z,76725.16
2022-12-14T15:03:28.313Z,76727.06
2022-12-14T15:05:55.557Z,76736.72
2022-12-14T15:08:34.050Z,76744.41
2022-12-14T15:11:03.640Z,76736.72
2022-12-14T15:13:33.702Z,76757.91
2022-12-14T15:16:00.679Z,76755.97
2022-12-14T15:18:30.966Z,76761.75
2022-12-14T15:21:03.851Z,76755.97
2022-12-14T15:23:36.151Z,76755.97
2022-12-14T15:26:04.370Z,76759.84
2022-12-14T15:28:32.144Z,76782.97
2022-12-14T15:30:59.927Z,76790.66
2022-12-14T15:33:30.800Z,76788.75
2022-12-14T15:36:05.457Z,76782.97
2022-12-14T15:38:33.438Z,76775.25
2022-12-14T15:41:03.327Z,76761.75
2022-12-14T15:43:31.005Z,76761.75
2022-12-14T15:46:04.073Z,76752.13
2022-12-14T15:48:34.251Z,76752.13
2022-12-14T15:51:05.787Z,76754.06
2022-12-14T15:53:34.406Z,76761.75
2022-12-14T15:56:08.290Z,76755.97
2022-12-14T15:58:40.223Z,76759.84
2022-12-14T16:01:22.330Z,76748.28
2022-12-14T16:03:56.462Z,76744.41
2022-12-14T16:06:24.988Z,76738.63
2022-12-14T16:08:54.241Z,76736.72
2022-12-14T16:11:32.511Z,76719.38
2022-12-14T16:14:01.195Z,76713.59
2022-12-14T16:16:28.098Z,76713.59
2022-12-14T16:19:08.652Z,76713.59
2022-12-14T16:21:41.381Z,76721.28
2022-12-14T16:24:22.481Z,76725.16
2022-12-14T16:27:00.122Z,76700.09
2022-12-14T16:29:30.956Z,76700.09
2022-12-14T16:32:02.237Z,76698.16
2022-12-14T16:34:29.284Z,76696.25
2022-12-14T16:37:32.210Z,76684.69
2022-12-14T16:39:47.744Z,76676.97
2022-12-14T16:42:19.919Z,76667.34
2022-12-14T16:44:47.210Z,76671.19
2022-12-14T16:47:14.626Z,76678.91
2022-12-14T16:49:41.198Z,76688.53
2022-12-14T16:52:16.905Z,76702.03
2022-12-14T16:54:43.633Z,76709.72
2022-12-14T16:57:23.290Z,76705.88
2022-12-14T17:00:00.565Z,76700.09
2022-12-14T17:02:40.541Z,76702.03
2022-12-14T17:05:18.703Z,76709.72
2022-12-14T17:07:45.303Z,76725.16
2022-12-14T17:10:16.094Z,76732.84
2022-12-14T17:12:44.243Z,76736.72
2022-12-14T17:15:18.009Z,76744.41
2022-12-14T17:17:45.850Z,76729.00
2022-12-14T17:20:26.476Z,76732.84
2022-12-14T17:22:54.106Z,76717.44
2022-12-14T17:25:20.774Z,76698.16
2022-12-14T17:27:47.329Z,76686.59
2022-12-14T17:30:16.932Z,76690.47
2022-12-14T17:32:43.680Z,76678.91
2022-12-14T17:35:17.994Z,76675.03
2022-12-14T17:37:44.700Z,76686.59
2022-12-14T17:40:11.522Z,76682.75
2022-12-14T17:42:39.244Z,76690.47
2022-12-14T17:45:07.137Z,76690.47
2022-12-14T17:47:33.769Z,76702.03
2022-12-14T17:50:00.450Z,76709.72
2022-12-14T17:52:28.964Z,76700.09
2022-12-14T17:54:55.501Z,76698.16
2022-12-14T17:57:23.363Z,76690.47
2022-12-14T18:00:10.236Z,76682.75
2022-12-14T18:02:37.075Z,76682.75
2022-12-14T18:05:03.884Z,76675.03
2022-12-14T18:07:30.539Z,76673.13
2022-12-14T18:09:57.158Z,76675.03
2022-12-14T18:12:25.261Z,76686.59
2022-12-14T18:14:52.227Z,76686.59
2022-12-14T18:17:18.809Z,76684.69
2022-12-14T18:19:47.900Z,76698.16
2022-12-14T18:22:16.287Z,76690.47
2022-12-14T18:24:42.869Z,76688.53
2022-12-14T18:27:09.357Z,76690.47
2022-12-14T18:29:35.891Z,76690.47
2022-12-14T18:32:02.692Z,76686.59
2022-12-14T18:34:29.245Z,76688.53
2022-12-14T18:36:55.768Z,76686.59
2022-12-14T18:39:22.254Z,76682.75
2022-12-14T18:41:49.031Z,76680.81
2022-12-14T18:44:15.621Z,76682.75
2022-12-14T18:46:42.295Z,76678.91
2022-12-14T18:49:08.881Z,76690.47
2022-12-14T18:51:35.547Z,76690.47
2022-12-14T18:54:03.367Z,76692.38
2022-12-14T18:56:30.514Z,76684.69
2022-12-14T18:58:57.720Z,76686.59
2022-12-14T19:01:24.935Z,76682.75
2022-12-14T19:03:52.164Z,76684.69
2022-12-14T19:09:11.349Z,76686.59
2022-12-14T19:11:40.107Z,76686.59
2022-12-14T19:14:07.047Z,76686.59
2022-12-14T19:16:33.887Z,76686.59
2022-12-14T19:19:00.845Z,76686.59
2022-12-14T19:21:29.381Z,76698.16
2022-12-14T19:23:56.310Z,76698.16
2022-12-14T19:26:23.330Z,76702.03
2022-12-14T19:28:49.974Z,76703.94
2022-12-14T19:31:16.607Z,76702.03
2022-12-14T19:33:43.216Z,76698.16
2022-12-14T19:36:10.114Z,76698.16
2022-12-14T19:38:37.215Z,76688.53
2022-12-14T19:41:05.718Z,76694.31
2022-12-14T19:43:32.639Z,76694.31
2022-12-14T19:45:59.619Z,76694.31
2022-12-14T19:48:26.321Z,76698.16
2022-12-14T19:50:52.872Z,76692.38
2022-12-14T19:53:23.792Z,76705.88
2022-12-14T19:55:52.664Z,76705.88
2022-12-14T19:58:21.932Z,76709.72
2022-12-14T20:00:49.052Z,76713.59
2022-12-14T20:03:15.788Z,76709.72
2022-12-14T20:05:48.601Z,76705.88
2022-12-14T20:08:15.082Z,76702.03
2022-12-14T20:10:41.634Z,76702.03
2022-12-14T20:13:08.433Z,76702.03
2022-12-14T20:15:35.002Z,76709.72
2022-12-14T20:18:04.674Z,76713.59
2022-12-14T20:20:32.162Z,76709.72
2022-12-14T20:22:58.695Z,76715.50
2022-12-14T20:25:25.363Z,76709.72
2022-12-14T20:27:52.323Z,76717.44
2022-12-14T20:30:19.383Z,76713.59
2022-12-14T20:32:49.113Z,76717.44
2022-12-14T20:35:18.662Z,76709.72
2022-12-14T20:37:45.754Z,76705.88
2022-12-14T20:40:12.800Z,76713.59
2022-12-14T20:42:39.450Z,76715.50
2022-12-14T20:45:07.421Z,76713.59
2022-12-14T20:47:34.272Z,76713.59
2022-12-14T20:50:04.909Z,76715.50
2022-12-14T20:52:31.517Z,76709.72
2022-12-14T20:54:58.047Z,76715.50
2022-12-14T20:57:26.522Z,76709.72
2022-12-14T20:59:53.031Z,76705.88
2022-12-14T21:02:26.638Z,76717.44
2022-12-14T21:04:53.389Z,76707.81
2022-12-14T21:07:24.354Z,76696.25
2022-12-14T21:09:52.720Z,76700.09
2022-12-14T21:12:22.312Z,76694.31
2022-12-14T21:14:55.885Z,76682.75
2022-12-14T21:17:23.707Z,76686.59
2022-12-14T21:19:50.506Z,76686.59
2022-12-14T21:22:18.696Z,76682.75
2022-12-14T21:25:03.139Z,76686.59
2022-12-14T21:27:30.988Z,76690.47
2022-12-14T21:29:57.726Z,76690.47
2022-12-14T21:32:24.369Z,76690.47
2022-12-14T21:34:50.963Z,76690.47
2022-12-14T21:37:17.847Z,76690.47
2022-12-14T21:39:51.835Z,76684.69
2022-12-14T21:42:20.797Z,76688.53
2022-12-14T21:44:48.774Z,76694.31
2022-12-14T21:47:17.166Z,76700.09
2022-12-14T21:49:44.505Z,76709.72
2022-12-14T21:52:15.442Z,76709.72
2022-12-14T21:54:42.628Z,76705.88
2022-12-14T21:57:35.604Z,76709.72
2022-12-14T22:00:02.531Z,76717.44
2022-12-14T22:02:39.042Z,76717.44
2022-12-14T22:05:06.024Z,76717.44
2022-12-14T22:07:33.429Z,76719.38
2022-12-14T22:10:00.022Z,76707.81
2022-12-14T22:12:26.885Z,76715.50
2022-12-14T22:14:53.820Z,76715.50
2022-12-14T22:17:20.463Z,76715.50
2022-12-14T22:19:48.580Z,76707.81
2022-12-14T22:22:15.584Z,76711.66
2022-12-14T22:24:43.220Z,76709.72
2022-12-14T22:27:10.969Z,76709.72
2022-12-14T22:29:37.528Z,76705.88
2022-12-14T22:32:04.286Z,76713.59
2022-12-14T22:34:30.878Z,76717.44
2022-12-14T22:36:57.594Z,76713.59
2022-12-14T22:39:24.123Z,76698.16
2022-12-14T22:41:50.840Z,76702.03
2022-12-14T22:44:17.826Z,76692.38
2022-12-14T22:46:44.450Z,76694.31
2022-12-14T22:49:15.210Z,76692.38
2022-12-14T22:51:41.839Z,76698.16
2022-12-14T22:54:08.443Z,76690.47
2022-12-14T22:56:40.990Z,76698.16
2022-12-14T22:59:10.039Z,76694.31
2022-12-14T23:01:37.591Z,76688.53
2022-12-14T23:04:05.695Z,76698.16
2022-12-14T23:06:32.859Z,76696.25
2022-12-14T23:09:17.938Z,76702.03
2022-12-14T23:12:03.001Z,76705.88
2022-12-14T23:14:48.288Z,76713.59
2022-12-14T23:17:33.454Z,76713.59
2022-12-14T23:20:18.804Z,76713.59
2022-12-14T23:23:03.722Z,76717.44
2022-12-14T23:25:51.550Z,76713.59
2022-12-14T23:28:37.082Z,76725.16
2022-12-14T23:31:22.187Z,76730.94
2022-12-14T23:34:07.532Z,76725.16
2022-12-14T23:36:52.767Z,76732.84
2022-12-14T23:39:38.105Z,76732.84
2022-12-14T23:42:23.409Z,76725.16
2022-12-14T23:45:08.299Z,76734.78
2022-12-14T23:47:53.664Z,76729.00
2022-12-14T23:50:38.688Z,76725.16
2022-12-14T23:53:27.157Z,76729.00
2022-12-14T23:56:12.448Z,76746.34
2022-12-14T23:58:57.778Z,76736.72
